Time;durP1;ratioP1;P1;durP2;ratioP2;P2;SDS_P1;SDS_P2;PMS_P1;PMS_P2;Temp;Humidity;BMP_temperature;BMP_pressure;BME280_temperature;BME280_humidity;BME280_pressure;Samples;Min_cycle;Max_cycle;Signal;HPM_P1;HPM_P2
2021/10/17 00:01:01;;;;;;;17.88;5.78;;;10.40;99.90;;;;;;5029582;28;39869;-78
2021/10/17 00:03:27;;;;;;;12.48;5.85;;;10.40;99.90;;;;;;5023427;28;48825;-78
2021/10/17 00:05:53;;;;;;;13.35;5.45;;;10.50;99.90;;;;;;5037647;28;39495;-78
2021/10/17 00:08:19;;;;;;;14.77;6.10;;;10.50;99.90;;;;;;5030477;28;38931;-79
2021/10/17 00:10:45;;;;;;;13.25;5.75;;;10.60;99.90;;;;;;5038555;28;37385;-78
2021/10/17 00:13:11;;;;;;;16.23;6.05;;;10.50;99.90;;;;;;5041789;28;36669;-79
2021/10/17 00:15:39;;;;;;;12.45;6.38;;;10.50;99.90;;;;;;5039128;28;39950;-78
2021/10/17 00:18:06;;;;;;;13.70;5.72;;;10.60;99.90;;;;;;5036260;28;39015;-78
2021/10/17 00:20:33;;;;;;;14.43;5.93;;;10.60;99.90;;;;;;5035874;28;39147;-78
2021/10/17 00:22:59;;;;;;;18.25;5.63;;;10.60;99.90;;;;;;5040280;28;36083;-78
2021/10/17 00:25:25;;;;;;;15.93;6.07;;;10.60;99.90;;;;;;5037563;28;39765;-79
2021/10/17 00:27:52;;;;;;;17.48;6.18;;;10.60;99.90;;;;;;5038062;28;39650;-78
2021/10/17 00:30:18;;;;;;;21.67;6.07;;;10.60;99.90;;;;;;5037562;28;40016;-79
2021/10/17 00:32:45;;;;;;;15.50;5.57;;;10.60;99.90;;;;;;5037324;28;37713;-78
2021/10/17 00:35:13;;;;;;;14.93;5.75;;;10.60;99.90;;;;;;5036959;28;40787;-78
2021/10/17 00:37:39;;;;;;;14.82;5.03;;;10.60;99.90;;;;;;5037982;28;39627;-79
2021/10/17 00:40:09;;;;;;;12.63;5.18;;;10.70;99.90;;;;;;5040467;28;37495;-78
2021/10/17 00:42:36;;;;;;;16.80;5.88;;;10.70;99.90;;;;;;5037946;28;37918;-79
2021/10/17 00:45:08;;;;;;;16.65;6.50;;;10.70;99.90;;;;;;5043386;28;39592;-78
2021/10/17 00:47:34;;;;;;;13.57;4.97;;;10.70;99.90;;;;;;5037177;28;47974;-80
2021/10/17 00:50:00;;;;;;;17.10;5.90;;;10.80;99.90;;;;;;5039833;28;37947;-79
2021/10/17 00:52:26;;;;;;;14.80;4.55;;;10.80;99.90;;;;;;5016776;28;37073;-79
2021/10/17 00:54:52;;;;;;;15.27;5.13;;;10.70;99.90;;;;;;5027813;28;40535;-79
2021/10/17 00:57:19;;;;;;;11.85;5.43;;;10.70;99.90;;;;;;5036174;28;38514;-79
2021/10/17 00:59:45;;;;;;;11.98;6.07;;;10.70;99.90;;;;;;5038422;28;40286;-79
2021/10/17 01:02:12;;;;;;;12.20;5.10;;;10.80;99.90;;;;;;5041814;28;37086;-79
2021/10/17 01:04:39;;;;;;;14.45;5.28;;;10.80;99.90;;;;;;5038607;28;38749;-78
2021/10/17 01:07:06;;;;;;;15.77;6.55;;;10.80;99.90;;;;;;5040572;28;38463;-78
2021/10/17 01:09:34;;;;;;;11.50;5.55;;;10.80;99.90;;;;;;5042189;28;38269;-79
2021/10/17 01:12:00;;;;;;;13.35;5.10;;;10.80;99.90;;;;;;5039869;28;36741;-78
2021/10/17 01:14:26;;;;;;;12.20;5.20;;;10.90;99.90;;;;;;5043198;28;38246;-78
2021/10/17 01:16:53;;;;;;;15.95;6.20;;;10.90;99.90;;;;;;5025006;28;39067;-78
2021/10/17 01:19:20;;;;;;;17.08;6.07;;;10.90;99.90;;;;;;5018611;28;38504;-78
2021/10/17 01:21:48;;;;;;;17.67;6.13;;;10.90;99.90;;;;;;5024913;28;39123;-79
2021/10/17 01:24:15;;;;;;;15.05;5.32;;;10.90;99.90;;;;;;5038752;28;38239;-79
2021/10/17 01:26:41;;;;;;;14.60;5.70;;;10.90;99.90;;;;;;5038549;28;38285;-78
2021/10/17 01:29:08;;;;;;;17.38;4.93;;;10.90;99.90;;;;;;5038333;28;37236;-79
2021/10/17 01:31:38;;;;;;;15.75;5.35;;;10.90;99.90;;;;;;5040604;28;38325;-79
2021/10/17 01:34:06;;;;;;;16.08;5.57;;;10.90;99.90;;;;;;5039423;28;38658;-79
2021/10/17 01:36:34;;;;;;;16.40;5.22;;;10.90;99.90;;;;;;5036774;28;38605;-79
2021/10/17 01:39:00;;;;;;;17.83;5.60;;;10.90;99.90;;;;;;5040999;28;38152;-79
2021/10/17 01:41:27;;;;;;;14.07;5.43;;;10.90;99.90;;;;;;5036460;28;39125;-79
2021/10/17 01:43:53;;;;;;;26.20;6.30;;;10.80;99.90;;;;;;5037819;28;40427;-78
2021/10/17 01:46:19;;;;;;;10.25;4.90;;;10.80;99.90;;;;;;5034473;28;37587;-79
2021/10/17 01:48:45;;;;;;;13.85;5.07;;;10.80;99.90;;;;;;5033367;28;38946;-79
2021/10/17 01:51:11;;;;;;;12.60;5.55;;;10.80;99.90;;;;;;5027907;28;36045;-78
2021/10/17 01:53:37;;;;;;;16.40;5.38;;;10.80;99.90;;;;;;5038279;28;38896;-78
2021/10/17 01:56:03;;;;;;;13.63;5.25;;;10.80;99.90;;;;;;5035546;28;37569;-78
2021/10/17 01:58:30;;;;;;;11.10;5.05;;;10.70;99.90;;;;;;5034354;28;37454;-79
2021/10/17 02:00:56;;;;;;;14.68;6.05;;;10.70;99.90;;;;;;5018225;28;37371;-79
2021/10/17 02:03:22;;;;;;;13.90;5.20;;;10.70;99.90;;;;;;5018123;28;39392;-78
2021/10/17 02:05:48;;;;;;;14.90;6.03;;;10.70;99.90;;;;;;5042640;28;38109;-78
2021/10/17 02:08:14;;;;;;;12.73;5.60;;;10.70;99.90;;;;;;5017897;28;38305;-78
2021/10/17 02:10:40;;;;;;;12.88;5.43;;;10.80;99.90;;;;;;5021085;28;37387;-78
2021/10/17 02:13:06;;;;;;;13.93;5.68;;;10.80;99.90;;;;;;5029242;28;38867;-78
2021/10/17 02:15:32;;;;;;;16.02;6.78;;;10.70;99.90;;;;;;5018604;28;38970;-79
2021/10/17 02:17:58;;;;;;;13.63;5.85;;;10.70;99.90;;;;;;5018018;28;38755;-78
2021/10/17 02:20:25;;;;;;;12.32;5.65;;;10.70;99.90;;;;;;5019462;28;37152;-78
2021/10/17 02:22:51;;;;;;;14.32;6.80;;;10.70;99.90;;;;;;5016851;28;41170;-79
2021/10/17 02:25:17;;;;;;;17.27;8.52;;;10.70;99.90;;;;;;5020330;28;38727;-79
2021/10/17 02:27:43;;;;;;;14.77;5.97;;;10.70;99.90;;;;;;5019387;28;41703;-79
2021/10/17 02:30:10;;;;;;;18.10;6.57;;;10.60;99.90;;;;;;5020612;28;37892;-78
2021/10/17 02:32:36;;;;;;;17.50;6.63;;;10.70;99.90;;;;;;5017405;28;39457;-79
2021/10/17 02:35:03;;;;;;;13.77;6.45;;;10.70;99.90;;;;;;5018590;28;38570;-78
2021/10/17 02:37:33;;;;;;;17.05;6.30;;;10.60;99.90;;;;;;5018521;28;39730;-79
2021/10/17 02:39:59;;;;;;;16.17;6.75;;;10.70;99.90;;;;;;5020642;28;37832;-79
2021/10/17 02:42:25;;;;;;;15.32;6.45;;;10.70;99.90;;;;;;5018801;28;39619;-78
2021/10/17 02:44:51;;;;;;;12.55;6.15;;;10.70;99.90;;;;;;5020784;28;39138;-79
2021/10/17 02:47:18;;;;;;;14.93;6.93;;;10.70;99.90;;;;;;5016757;28;39499;-78
2021/10/17 02:49:44;;;;;;;17.00;6.78;;;10.70;99.90;;;;;;5022534;28;36919;-79
2021/10/17 02:52:10;;;;;;;18.17;7.00;;;10.70;99.90;;;;;;5036919;28;38774;-78
2021/10/17 02:54:36;;;;;;;17.10;7.10;;;10.70;99.90;;;;;;5038453;28;38439;-78
2021/10/17 02:57:02;;;;;;;15.88;8.40;;;10.70;99.90;;;;;;5032172;28;39492;-78
2021/10/17 02:59:28;;;;;;;17.25;6.78;;;10.70;99.90;;;;;;5029691;28;46793;-79
2021/10/17 03:01:54;;;;;;;20.92;7.43;;;10.70;99.90;;;;;;5036528;28;38592;-78
2021/10/17 03:04:20;;;;;;;15.32;7.03;;;10.70;99.90;;;;;;5036596;28;39241;-78
2021/10/17 03:06:46;;;;;;;13.85;7.10;;;10.70;99.90;;;;;;5038323;28;39083;-78
2021/10/17 03:09:13;;;;;;;17.88;7.78;;;10.70;99.90;;;;;;5034703;28;37092;-78
2021/10/17 03:11:39;;;;;;;16.23;6.97;;;10.70;99.90;;;;;;5035479;28;40387;-78
2021/10/17 03:14:05;;;;;;;16.48;7.13;;;10.70;99.90;;;;;;5028257;28;39439;-78
2021/10/17 03:16:32;;;;;;;21.27;7.57;;;10.70;99.90;;;;;;5030758;28;38599;-78
2021/10/17 03:18:58;;;;;;;18.42;8.05;;;10.70;99.90;;;;;;5029752;28;37624;-78
2021/10/17 03:21:24;;;;;;;21.60;7.53;;;10.70;99.90;;;;;;5037227;28;39244;-78
2021/10/17 03:23:50;;;;;;;17.63;7.47;;;10.60;99.90;;;;;;5035190;28;38074;-79
2021/10/17 03:26:17;;;;;;;18.08;6.85;;;10.70;99.90;;;;;;5033547;28;38617;-79
2021/10/17 03:28:43;;;;;;;10.73;5.97;;;10.70;99.90;;;;;;5027183;28;38059;-78
2021/10/17 03:31:09;;;;;;;17.00;8.07;;;10.70;99.90;;;;;;5028917;28;38982;-78
2021/10/17 03:33:35;;;;;;;12.50;6.78;;;10.70;99.90;;;;;;5021138;28;40292;-78
2021/10/17 03:36:02;;;;;;;15.98;6.97;;;10.70;99.90;;;;;;5032551;28;38320;-78
2021/10/17 03:38:28;;;;;;;18.88;6.63;;;10.70;99.90;;;;;;5038543;28;38739;-79
2021/10/17 03:40:54;;;;;;;16.23;6.28;;;10.60;99.90;;;;;;5037148;28;39617;-80
2021/10/17 03:43:20;;;;;;;14.55;6.80;;;10.60;99.90;;;;;;5037955;28;38431;-79
2021/10/17 03:45:47;;;;;;;19.70;6.80;;;10.60;99.90;;;;;;5039054;28;37694;-79
2021/10/17 03:48:13;;;;;;;19.40;7.45;;;10.70;99.90;;;;;;5037102;28;38699;-79
2021/10/17 03:50:39;;;;;;;20.17;7.70;;;10.60;99.90;;;;;;5034059;28;39441;-79
2021/10/17 03:53:05;;;;;;;21.85;7.55;;;10.60;99.90;;;;;;5037183;28;38193;-78
2021/10/17 03:55:31;;;;;;;16.98;7.32;;;10.70;99.90;;;;;;5034037;28;38706;-79
2021/10/17 03:57:57;;;;;;;12.95;6.55;;;10.70;99.90;;;;;;5035291;28;35869;-78
2021/10/17 04:00:24;;;;;;;17.08;7.07;;;10.70;99.90;;;;;;5029808;28;39029;-78
2021/10/17 04:02:50;;;;;;;18.15;7.72;;;10.70;99.90;;;;;;5046228;28;38846;-78
2021/10/17 04:05:17;;;;;;;15.70;6.72;;;10.70;99.90;;;;;;5035003;28;38028;-78
2021/10/17 04:07:43;;;;;;;22.85;8.10;;;10.70;99.90;;;;;;5030232;28;37906;-78
2021/10/17 04:10:10;;;;;;;16.60;6.95;;;10.70;99.90;;;;;;5038586;28;36538;-78
2021/10/17 04:12:36;;;;;;;16.90;7.22;;;10.70;99.90;;;;;;5032480;28;37579;-79
2021/10/17 04:15:02;;;;;;;14.50;6.28;;;10.70;99.90;;;;;;5037463;28;37684;-78
2021/10/17 04:17:28;;;;;;;14.77;6.60;;;10.70;99.90;;;;;;5031067;28;37352;-78
2021/10/17 04:19:54;;;;;;;19.63;7.32;;;10.70;99.90;;;;;;5035651;28;39505;-78
2021/10/17 04:22:21;;;;;;;16.45;7.32;;;10.70;99.90;;;;;;5033025;28;37592;-79
2021/10/17 04:24:47;;;;;;;18.10;8.25;;;10.70;99.90;;;;;;5036326;28;37816;-79
2021/10/17 04:27:14;;;;;;;16.88;7.25;;;10.70;99.90;;;;;;5034978;28;37534;-78
2021/10/17 04:29:40;;;;;;;19.15;8.27;;;10.70;99.90;;;;;;5047733;28;40621;-78
2021/10/17 04:32:07;;;;;;;19.85;7.63;;;10.70;99.90;;;;;;5039571;28;39567;-79
2021/10/17 04:34:34;;;;;;;19.92;9.10;;;10.80;99.90;;;;;;5037055;28;38262;-79
2021/10/17 04:37:01;;;;;;;16.50;8.50;;;10.80;99.90;;;;;;5040541;28;36725;-79
2021/10/17 04:39:27;;;;;;;17.85;8.93;;;10.80;99.90;;;;;;5038324;28;38090;-78
2021/10/17 04:41:53;;;;;;;24.83;10.25;;;10.80;99.90;;;;;;5039136;28;38542;-78
2021/10/17 04:44:19;;;;;;;23.00;10.15;;;10.70;99.90;;;;;;5038695;28;39215;-78
2021/10/17 04:46:46;;;;;;;24.48;9.40;;;10.70;99.90;;;;;;5038400;28;36948;-79
2021/10/17 04:49:12;;;;;;;24.85;9.27;;;10.80;99.90;;;;;;5039112;28;39781;-78
2021/10/17 04:51:38;;;;;;;19.42;9.45;;;10.80;99.90;;;;;;5038387;28;38374;-79
2021/10/17 04:54:05;;;;;;;23.98;9.70;;;10.80;99.90;;;;;;5043123;28;37971;-79
2021/10/17 04:56:31;;;;;;;22.63;9.80;;;10.70;99.90;;;;;;5037152;28;37374;-78
2021/10/17 04:58:57;;;;;;;21.52;8.82;;;10.80;99.90;;;;;;5036231;28;40253;-79
2021/10/17 05:01:24;;;;;;;18.02;8.57;;;10.80;99.90;;;;;;5037013;28;39142;-79
2021/10/17 05:03:50;;;;;;;19.10;9.20;;;10.80;99.90;;;;;;5038178;28;38166;-79
2021/10/17 05:06:16;;;;;;;19.98;9.10;;;10.80;99.90;;;;;;5019550;28;39035;-78
2021/10/17 05:08:42;;;;;;;22.63;9.45;;;10.70;99.90;;;;;;5020308;28;39370;-79
2021/10/17 05:11:08;;;;;;;23.10;8.95;;;10.80;99.90;;;;;;5017616;28;39208;-78
2021/10/17 05:13:34;;;;;;;20.67;8.70;;;10.80;99.90;;;;;;5020344;28;38826;-78
2021/10/17 05:16:00;;;;;;;23.13;9.15;;;10.80;99.90;;;;;;5024964;28;38786;-78
2021/10/17 05:18:26;;;;;;;20.63;8.98;;;10.80;99.90;;;;;;5039644;28;39220;-78
2021/10/17 05:20:52;;;;;;;19.88;9.57;;;10.80;99.90;;;;;;5039464;28;37246;-79
2021/10/17 05:23:21;;;;;;;18.42;8.65;;;10.80;99.90;;;;;;5036264;28;38824;-78
2021/10/17 05:25:47;;;;;;;18.58;8.68;;;10.80;99.90;;;;;;5039035;28;36893;-78
2021/10/17 05:28:13;;;;;;;19.27;8.15;;;10.80;99.90;;;;;;5032911;28;40013;-78
2021/10/17 05:30:39;;;;;;;21.10;8.93;;;10.80;99.90;;;;;;5039707;28;38933;-78
2021/10/17 05:33:06;;;;;;;20.27;9.45;;;10.80;99.90;;;;;;5039409;28;38043;-81
2021/10/17 05:35:32;;;;;;;21.58;8.65;;;10.80;99.90;;;;;;5034152;28;38034;-78
2021/10/17 05:37:58;;;;;;;20.60;9.07;;;10.80;99.90;;;;;;5016850;28;39514;-78
2021/10/17 05:40:24;;;;;;;18.30;8.40;;;10.80;99.90;;;;;;5018586;28;39089;-78
2021/10/17 05:42:50;;;;;;;14.75;7.60;;;10.70;99.90;;;;;;5014216;28;39545;-78
2021/10/17 05:45:16;;;;;;;19.02;8.45;;;10.80;99.90;;;;;;5018022;28;37676;-78
2021/10/17 05:47:42;;;;;;;20.35;8.00;;;10.80;99.90;;;;;;5018508;28;41971;-78
2021/10/17 05:50:09;;;;;;;21.33;8.50;;;10.80;99.90;;;;;;5016444;28;38527;-78
2021/10/17 05:52:35;;;;;;;18.00;8.30;;;10.80;99.90;;;;;;5016734;28;39580;-78
2021/10/17 05:55:01;;;;;;;20.52;7.53;;;10.80;99.90;;;;;;5019071;28;37483;-78
2021/10/17 05:57:27;;;;;;;17.30;8.20;;;10.80;99.90;;;;;;5017157;28;49240;-78
2021/10/17 05:59:53;;;;;;;18.58;7.68;;;10.80;99.90;;;;;;5017597;28;38399;-78
2021/10/17 06:02:19;;;;;;;13.70;7.40;;;10.80;99.90;;;;;;5017633;28;38232;-78
2021/10/17 06:04:45;;;;;;;16.65;8.30;;;10.80;99.90;;;;;;5018772;28;37958;-78
2021/10/17 06:07:12;;;;;;;20.90;8.27;;;10.70;99.90;;;;;;5017369;28;39153;-79
2021/10/17 06:09:40;;;;;;;14.00;7.18;;;10.80;99.90;;;;;;5034991;28;38823;-78
2021/10/17 06:12:08;;;;;;;18.35;8.60;;;10.80;99.90;;;;;;5017723;28;38558;-78
2021/10/17 06:14:34;;;;;;;24.98;9.07;;;10.80;99.90;;;;;;5016117;28;37186;-79
2021/10/17 06:17:00;;;;;;;20.13;8.23;;;10.70;99.90;;;;;;5018041;28;38924;-78
2021/10/17 06:19:26;;;;;;;20.75;8.07;;;10.80;99.90;;;;;;5016536;28;38861;-79
2021/10/17 06:21:53;;;;;;;16.17;7.32;;;10.80;99.90;;;;;;5014041;28;39271;-79
2021/10/17 06:24:19;;;;;;;18.45;8.20;;;10.80;99.90;;;;;;5017371;28;38750;-79
2021/10/17 06:26:45;;;;;;;17.95;7.78;;;10.80;99.90;;;;;;5017605;28;38792;-77
2021/10/17 06:29:12;;;;;;;18.23;8.05;;;10.80;99.90;;;;;;5015856;28;39134;-78
2021/10/17 06:31:39;;;;;;;16.60;8.02;;;10.80;99.90;;;;;;5014855;28;38133;-78
2021/10/17 06:34:05;;;;;;;20.02;7.75;;;10.90;99.90;;;;;;5016407;28;38668;-78
2021/10/17 06:36:32;;;;;;;17.35;7.95;;;10.90;99.90;;;;;;5016975;28;38743;-78
2021/10/17 06:38:58;;;;;;;18.15;7.97;;;10.90;99.90;;;;;;5015818;28;38086;-78
2021/10/17 06:41:24;;;;;;;18.52;7.78;;;10.90;99.90;;;;;;5017139;28;39891;-79
2021/10/17 06:43:50;;;;;;;19.73;8.35;;;10.90;99.90;;;;;;5035075;28;38042;-79
2021/10/17 06:46:16;;;;;;;18.27;8.60;;;10.90;99.90;;;;;;5027117;28;39185;-79
2021/10/17 06:48:42;;;;;;;17.02;7.32;;;10.90;99.90;;;;;;5036658;28;39395;-78
2021/10/17 06:51:08;;;;;;;19.83;8.15;;;10.90;99.90;;;;;;5032089;28;38746;-78
2021/10/17 06:53:34;;;;;;;18.15;7.55;;;10.90;99.90;;;;;;5044554;28;38127;-78
2021/10/17 06:56:01;;;;;;;16.67;8.05;;;10.90;99.90;;;;;;5040197;28;40713;-78
2021/10/17 06:58:27;;;;;;;20.42;8.27;;;11.00;99.90;;;;;;5020742;28;47396;-78
2021/10/17 07:00:53;;;;;;;16.23;8.43;;;11.00;99.90;;;;;;5025819;28;39063;-78
2021/10/17 07:03:19;;;;;;;18.27;8.65;;;11.00;99.90;;;;;;5023944;28;36993;-78
2021/10/17 07:05:45;;;;;;;18.10;8.10;;;11.10;99.90;;;;;;5045365;28;39576;-79
2021/10/17 07:08:11;;;;;;;19.33;7.32;;;11.00;99.90;;;;;;5045532;28;39479;-78
2021/10/17 07:10:37;;;;;;;15.85;7.45;;;11.10;99.90;;;;;;5032593;28;37950;-78
2021/10/17 07:13:03;;;;;;;18.58;8.10;;;11.10;99.90;;;;;;5024072;28;37554;-78
2021/10/17 07:15:29;;;;;;;16.75;8.75;;;11.10;99.90;;;;;;5021216;28;40414;-79
2021/10/17 07:17:56;;;;;;;20.88;8.93;;;11.20;99.90;;;;;;5037375;28;38306;-78
2021/10/17 07:20:22;;;;;;;18.88;8.13;;;11.20;99.90;;;;;;5042116;28;38549;-79
2021/10/17 07:22:48;;;;;;;19.58;7.82;;;11.30;99.90;;;;;;5041737;28;38305;-78
2021/10/17 07:25:16;;;;;;;18.40;8.55;;;11.30;99.90;;;;;;5047172;28;39528;-79
2021/10/17 07:27:43;;;;;;;15.63;7.45;;;11.30;99.90;;;;;;5040137;28;38535;-79
2021/10/17 07:30:10;;;;;;;18.35;8.73;;;11.30;99.90;;;;;;5040580;28;38409;-78
2021/10/17 07:32:36;;;;;;;14.73;8.27;;;11.30;99.90;;;;;;5034791;28;35898;-79
2021/10/17 07:35:02;;;;;;;22.23;8.95;;;11.30;99.90;;;;;;5042426;28;39304;-78
2021/10/17 07:37:28;;;;;;;20.35;8.63;;;11.40;99.90;;;;;;5037435;28;46924;-78
2021/10/17 07:39:54;;;;;;;21.77;8.93;;;11.40;99.90;;;;;;5027183;28;39476;-78
2021/10/17 07:42:20;;;;;;;14.32;8.77;;;11.40;99.90;;;;;;5042681;28;37108;-78
2021/10/17 07:44:47;;;;;;;21.75;8.52;;;11.40;99.90;;;;;;5043644;28;39343;-78
2021/10/17 07:47:13;;;;;;;18.20;7.75;;;11.50;99.90;;;;;;5042550;28;39830;-78
2021/10/17 07:49:39;;;;;;;20.05;9.27;;;11.50;99.90;;;;;;5039484;28;38886;-78
2021/10/17 07:52:05;;;;;;;20.77;9.00;;;11.50;99.90;;;;;;5031127;28;38373;-78
2021/10/17 07:54:33;;;;;;;20.00;8.48;;;11.60;99.90;;;;;;5043442;28;39415;-78
2021/10/17 07:56:59;;;;;;;18.73;7.72;;;11.60;99.90;;;;;;5022628;28;38795;-78
2021/10/17 07:59:25;;;;;;;13.73;7.07;;;11.60;99.90;;;;;;5038058;28;38720;-78
2021/10/17 08:01:51;;;;;;;14.45;7.75;;;11.70;99.90;;;;;;5031815;28;37839;-78
2021/10/17 08:04:17;;;;;;;21.75;8.60;;;11.80;99.90;;;;;;5046698;28;40328;-79
2021/10/17 08:06:43;;;;;;;18.02;7.93;;;11.80;99.90;;;;;;5048572;28;40437;-78
2021/10/17 08:09:09;;;;;;;13.38;7.45;;;11.80;99.90;;;;;;5113556;22;38931;-78
2021/10/17 08:11:35;;;;;;;15.50;7.70;;;11.90;99.90;;;;;;5102399;28;38226;-79
2021/10/17 08:14:01;;;;;;;23.23;7.85;;;11.80;99.90;;;;;;5088856;27;39717;-79
2021/10/17 08:16:27;;;;;;;13.48;7.85;;;11.80;99.90;;;;;;5086270;28;38788;-81
2021/10/17 08:18:54;;;;;;;20.80;7.18;;;11.90;99.90;;;;;;5086132;28;39069;-81
2021/10/17 08:21:20;;;;;;;18.13;7.20;;;12.00;99.90;;;;;;5102260;27;37307;-79
2021/10/17 08:23:46;;;;;;;17.65;7.50;;;12.00;99.90;;;;;;5093668;28;38448;-81
2021/10/17 08:26:13;;;;;;;15.68;7.43;;;12.10;99.90;;;;;;5085671;28;40242;-80
2021/10/17 08:28:39;;;;;;;15.50;7.90;;;12.10;99.90;;;;;;5098338;27;37943;-82
2021/10/17 08:31:06;;;;;;;17.10;8.02;;;12.20;99.90;;;;;;5094157;27;37253;-80
2021/10/17 08:33:32;;;;;;;14.60;7.43;;;12.10;99.90;;;;;;5088382;28;39605;-81
2021/10/17 08:35:58;;;;;;;16.50;8.05;;;12.20;99.90;;;;;;5083472;28;38530;-79
2021/10/17 08:38:24;;;;;;;18.02;7.60;;;12.20;99.90;;;;;;5098022;28;37978;-80
2021/10/17 08:40:53;;;;;;;14.80;8.20;;;12.20;99.90;;;;;;5078588;28;36322;-80
2021/10/17 08:43:19;;;;;;;17.42;7.70;;;12.30;99.90;;;;;;5081792;28;39895;-81
2021/10/17 08:45:45;;;;;;;16.60;7.80;;;12.30;99.90;;;;;;5086054;28;38021;-78
2021/10/17 08:48:12;;;;;;;17.85;7.13;;;12.40;99.90;;;;;;5094225;27;39177;-80
2021/10/17 08:50:40;;;;;;;12.10;7.03;;;12.30;99.90;;;;;;5086727;28;37856;-81
2021/10/17 08:53:06;;;;;;;22.70;8.02;;;12.40;99.90;;;;;;5108039;28;38244;-81
2021/10/17 08:55:32;;;;;;;17.77;7.63;;;12.30;99.90;;;;;;5088837;28;39063;-80
2021/10/17 08:57:58;;;;;;;13.82;6.80;;;12.30;99.90;;;;;;5079078;28;38709;-81
2021/10/17 09:00:28;;;;;;;18.33;7.45;;;12.40;99.90;;;;;;5103754;28;37253;-81
2021/10/17 09:02:54;;;;;;;16.05;7.22;;;12.40;99.90;;;;;;5108253;28;38740;-82
2021/10/17 09:08:26;;;;;;;16.63;7.20;;;12.50;99.90;;;;;;5046712;22;20045;-80
2021/10/17 09:10:53;;;;;;;18.77;7.72;;;12.50;99.90;;;;;;5023435;28;38189;-81
2021/10/17 09:13:19;;;;;;;18.83;7.88;;;12.50;99.90;;;;;;5006958;28;40767;-81
2021/10/17 09:15:45;;;;;;;18.15;7.85;;;12.60;99.90;;;;;;5037856;28;38747;-81
2021/10/17 09:18:18;;;;;;;14.32;6.60;;;12.70;99.90;;;;;;5033892;28;38285;-80
2021/10/17 09:20:47;;;;;;;17.15;7.03;;;12.70;99.90;;;;;;5025802;28;37674;-80
2021/10/17 09:23:35;;;;;;;12.43;5.80;;;12.70;99.90;;;;;;5027578;28;39807;-80
2021/10/17 09:26:08;;;;;;;18.02;7.25;;;12.70;99.90;;;;;;5040525;28;38278;-76
2021/10/17 09:28:35;;;;;;;13.25;7.28;;;12.80;99.90;;;;;;5025495;28;38474;-79
2021/10/17 09:31:20;;;;;;;16.65;6.55;;;12.90;99.90;;;;;;5019012;28;37772;-78
2021/10/17 09:33:53;;;;;;;15.70;6.63;;;12.90;99.90;;;;;;5023079;28;39724;-80
2021/10/17 09:36:23;;;;;;;16.23;6.88;;;12.80;99.90;;;;;;5040258;28;38254;-80
2021/10/17 09:38:54;;;;;;;14.48;6.32;;;12.90;99.90;;;;;;5026526;28;38628;-80
2021/10/17 09:41:23;;;;;;;13.00;6.57;;;12.90;99.90;;;;;;5025756;28;38001;-80
2021/10/17 09:43:51;;;;;;;15.02;6.18;;;13.00;99.90;;;;;;5027201;28;39483;-80
2021/10/17 09:46:17;;;;;;;15.48;5.93;;;13.00;99.90;;;;;;5027975;28;37291;-81
2021/10/17 09:48:44;;;;;;;15.65;7.10;;;13.10;99.90;;;;;;5026502;28;39761;-80
2021/10/17 09:51:15;;;;;;;18.40;6.65;;;13.10;99.90;;;;;;5025769;28;38038;-81
2021/10/17 09:53:47;;;;;;;17.03;6.10;;;13.10;99.90;;;;;;5046098;28;39520;-80
2021/10/17 09:56:36;;;;;;;12.37;6.37;;;13.00;99.90;;;;;;5045721;28;39115;-80
2021/10/17 09:59:07;;;;;;;13.45;6.40;;;13.10;99.90;;;;;;5026354;28;39294;-80
2021/10/17 10:01:35;;;;;;;11.63;5.18;;;13.10;99.90;;;;;;5038329;28;47338;-80
2021/10/17 10:04:04;;;;;;;12.45;6.47;;;13.20;99.90;;;;;;5023721;28;40684;-80
2021/10/17 10:06:32;;;;;;;14.82;6.93;;;13.30;99.90;;;;;;5025584;28;46919;-80
2021/10/17 10:09:07;;;;;;;15.57;5.65;;;13.60;99.90;;;;;;5025051;28;39477;-80
2021/10/17 10:11:34;;;;;;;20.63;6.38;;;13.70;99.90;;;;;;5035469;28;48930;-80
2021/10/17 10:14:06;;;;;;;12.10;5.68;;;13.70;99.90;;;;;;5034498;28;39627;-80
2021/10/17 10:16:33;;;;;;;11.60;6.20;;;13.60;99.90;;;;;;5041118;28;48585;-80
2021/10/17 10:19:05;;;;;;;12.45;5.93;;;13.50;99.90;;;;;;5039033;28;38084;-79
2021/10/17 10:21:31;;;;;;;14.07;5.68;;;13.50;99.90;;;;;;5036597;28;48241;-79
2021/10/17 10:24:04;;;;;;;12.55;5.85;;;13.50;99.90;;;;;;5038367;28;37567;-80
2021/10/17 10:26:34;;;;;;;11.98;5.75;;;13.60;99.90;;;;;;5072302;28;48723;-81
2021/10/17 10:29:03;;;;;;;11.32;5.93;;;13.70;99.90;;;;;;5045473;28;36990;-82
2021/10/17 10:32:05;;;;;;;11.25;5.68;;;13.80;99.90;;;;;;5069785;28;47263;-82
2021/10/17 10:34:59;;;;;;;15.20;5.17;;;13.80;99.90;;;;;;5073382;28;48162;-81
2021/10/17 10:37:47;;;;;;;13.35;6.05;;;13.90;99.90;;;;;;5055781;28;37479;-82
2021/10/17 10:40:15;;;;;;;14.60;6.13;;;13.80;99.90;;;;;;5047084;28;37775;-81
2021/10/17 10:42:44;;;;;;;14.20;6.13;;;13.80;99.90;;;;;;5051205;28;35864;-81
2021/10/17 10:45:23;;;;;;;13.77;6.78;;;13.90;99.90;;;;;;5049289;28;37927;-81
2021/10/17 10:48:11;;;;;;;10.25;5.50;;;13.80;99.90;;;;;;5066779;28;39768;-82
2021/10/17 10:50:49;;;;;;;12.60;5.95;;;14.00;99.90;;;;;;5066658;28;50263;-81
2021/10/17 10:54:01;;;;;;;13.45;5.78;;;14.20;99.90;;;;;;5050309;28;36082;-82
2021/10/17 10:56:49;;;;;;;13.02;5.78;;;14.10;99.90;;;;;;5060671;28;46709;-80
2021/10/17 10:59:19;;;;;;;13.20;5.93;;;13.80;99.90;;;;;;5039190;28;38005;-82
2021/10/17 11:01:52;;;;;;;10.15;5.57;;;13.80;99.90;;;;;;5050775;28;37685;-81
2021/10/17 11:04:37;;;;;;;12.38;6.18;;;13.90;99.90;;;;;;5040188;28;38201;-82
2021/10/17 11:07:46;;;;;;;11.77;5.35;;;13.90;99.90;;;;;;5052460;28;38196;-78
2021/10/17 11:10:35;;;;;;;12.95;5.45;;;13.90;99.90;;;;;;5061939;28;37815;-81
2021/10/17 11:13:03;;;;;;;10.98;5.38;;;13.80;99.90;;;;;;5034372;28;37492;-80
2021/10/17 11:15:47;;;;;;;12.35;5.35;;;13.80;99.90;;;;;;5071953;28;36685;-82
2021/10/17 11:18:13;;;;;;;15.00;6.15;;;14.00;99.90;;;;;;5069393;28;39331;-81
2021/10/17 11:20:59;;;;;;;13.60;6.10;;;14.20;99.90;;;;;;5054636;28;39852;-82
2021/10/17 11:23:32;;;;;;;14.45;6.30;;;13.90;99.90;;;;;;5053733;28;39171;-82
2021/10/17 11:26:13;;;;;;;15.20;6.70;;;13.90;99.90;;;;;;5035557;28;36928;-82
2021/10/17 11:28:49;;;;;;;14.30;6.00;;;13.70;99.90;;;;;;5040921;28;48358;-83
2021/10/17 11:31:20;;;;;;;14.65;6.15;;;13.70;99.90;;;;;;5053943;28;38591;-81
2021/10/17 11:33:57;;;;;;;12.93;6.22;;;13.70;99.90;;;;;;5056501;28;41462;-82
2021/10/17 11:36:40;;;;;;;17.55;5.72;;;13.80;99.90;;;;;;5042138;28;36118;-83
2021/10/17 11:39:06;;;;;;;14.70;6.82;;;13.90;99.90;;;;;;5050022;28;38889;-81
2021/10/17 11:41:33;;;;;;;12.00;6.03;;;13.90;99.90;;;;;;5047056;28;37442;-82
2021/10/17 11:44:00;;;;;;;15.75;6.07;;;13.80;99.90;;;;;;5028908;28;37335;-81
2021/10/17 11:46:28;;;;;;;11.93;5.97;;;13.80;99.90;;;;;;5061943;28;37581;-82
2021/10/17 11:48:59;;;;;;;10.88;6.20;;;13.70;99.90;;;;;;5045072;28;39511;-82
2021/10/17 11:51:25;;;;;;;12.38;6.38;;;13.80;99.90;;;;;;5071405;28;39047;-82
2021/10/17 11:53:57;;;;;;;9.82;5.20;;;13.80;99.90;;;;;;5065161;28;38459;-81
2021/10/17 11:56:23;;;;;;;15.38;6.53;;;13.90;99.90;;;;;;5059434;28;37688;-82
2021/10/17 11:58:49;;;;;;;11.43;5.97;;;13.90;99.90;;;;;;5061248;28;38935;-81
2021/10/17 12:01:17;;;;;;;13.52;6.38;;;14.00;99.90;;;;;;5032767;28;39080;-80
2021/10/17 12:03:50;;;;;;;15.85;6.25;;;13.90;99.90;;;;;;5026318;28;37282;-80
2021/10/17 12:06:18;;;;;;;14.32;6.57;;;13.90;99.90;;;;;;5031557;28;36096;-81
2021/10/17 12:08:50;;;;;;;16.58;6.65;;;14.00;99.90;;;;;;5028944;28;37888;-81
2021/10/17 12:11:16;;;;;;;12.63;6.30;;;13.90;99.90;;;;;;5031046;28;38850;-81
2021/10/17 12:13:54;;;;;;;10.00;6.60;;;13.90;99.90;;;;;;5029761;28;38474;-81
2021/10/17 12:16:22;;;;;;;11.27;6.22;;;13.90;99.90;;;;;;5023760;28;39315;-80
2021/10/17 12:18:50;;;;;;;13.93;6.20;;;14.00;99.90;;;;;;5042703;28;39659;-80
2021/10/17 12:21:22;;;;;;;15.75;7.07;;;14.00;99.90;;;;;;5038434;28;38897;-79
2021/10/17 12:23:49;;;;;;;16.30;6.90;;;14.00;99.90;;;;;;5045541;28;38859;-79
2021/10/17 12:26:23;;;;;;;12.23;6.63;;;13.90;99.90;;;;;;5041862;28;37131;-80
2021/10/17 12:29:12;;;;;;;19.85;7.47;;;13.90;99.90;;;;;;5022724;28;37719;-80
2021/10/17 12:31:50;;;;;;;12.77;7.00;;;13.90;99.90;;;;;;5036817;28;49063;-80
2021/10/17 12:34:35;;;;;;;13.25;6.05;;;14.00;99.90;;;;;;5003861;28;38157;-79
2021/10/17 12:37:01;;;;;;;16.88;6.75;;;14.00;99.90;;;;;;5020285;28;36353;-80
2021/10/17 12:39:27;;;;;;;12.13;7.07;;;14.00;99.90;;;;;;5042569;28;40401;-80
2021/10/17 12:41:58;;;;;;;11.07;6.10;;;14.10;99.90;;;;;;5024925;28;39287;-80
2021/10/17 12:44:24;;;;;;;13.18;6.70;;;14.10;99.90;;;;;;5032796;28;38338;-80